createdAt,value
2022-10-05T00:14:34.275Z,585.46729
2022-10-05T00:29:36.646Z,497.25949
2022-10-05T00:44:38.955Z,325.69043
2022-10-05T00:59:41.299Z,204.52583
2022-10-05T01:14:43.867Z,70.76012
2022-10-05T01:29:46.400Z,15.50907
2022-10-05T01:44:48.684Z,0.96932
2022-10-05T01:59:51.004Z,0
2022-10-05T02:14:53.285Z,0
2022-10-05T02:29:55.556Z,0
2022-10-05T02:44:57.909Z,0
2022-10-05T03:00:00.210Z,0
2022-10-05T03:15:02.520Z,0
2022-10-05T03:30:04.790Z,0
2022-10-05T03:45:07.312Z,0
2022-10-05T04:00:09.572Z,0
2022-10-05T04:15:16.437Z,0
2022-10-05T04:30:21.121Z,0
2022-10-05T04:45:23.382Z,0
2022-10-05T05:00:25.671Z,0
2022-10-05T05:15:28.015Z,0
2022-10-05T05:30:30.326Z,0
2022-10-05T05:45:32.752Z,0
2022-10-05T06:00:35.088Z,0
2022-10-05T06:15:37.396Z,0
2022-10-05T06:30:39.759Z,0
2022-10-05T06:45:42.142Z,0
2022-10-05T07:00:44.559Z,0
2022-10-05T07:15:46.917Z,0
2022-10-05T07:30:49.276Z,0
2022-10-05T07:45:51.753Z,0
2022-10-05T08:00:54.228Z,0
2022-10-05T08:15:56.573Z,0
2022-10-05T08:30:59.066Z,0
2022-10-05T08:46:01.481Z,0
2022-10-05T09:01:04.064Z,0
2022-10-05T09:16:06.468Z,0
2022-10-05T09:31:08.858Z,0
2022-10-05T09:46:11.283Z,0
2022-10-05T10:01:22.130Z,0
2022-10-05T10:16:34.999Z,0
2022-10-05T10:31:37.293Z,0
2022-10-05T10:46:39.869Z,0
2022-10-05T11:01:42.490Z,0
2022-10-05T11:16:44.753Z,0
2022-10-05T11:31:47.436Z,0
2022-10-05T11:46:50.166Z,0
2022-10-05T12:01:52.516Z,0
2022-10-05T12:16:54.818Z,0
2022-10-05T12:31:57.240Z,0
2022-10-05T12:46:59.499Z,0
2022-10-05T13:02:01.891Z,0
2022-10-05T13:17:04.228Z,0
2022-10-05T13:32:06.645Z,0.96932
2022-10-05T13:47:08.926Z,14.53975
2022-10-05T14:02:11.322Z,75.6067
2022-10-05T14:17:13.669Z,196.7713
2022-10-05T14:32:15.977Z,330.53699
2022-10-05T14:47:18.298Z,335.38358
2022-10-05T15:02:20.683Z,1476.26941
2022-10-05T15:17:23.234Z,1377.39905
2022-10-05T15:32:25.492Z,1741.86218
2022-10-05T15:47:27.774Z,3579.68677
2022-10-05T16:02:30.175Z,17518.46094
2022-10-05T16:17:32.542Z,3626.21387
2022-10-05T16:32:34.836Z,13374.63184
2022-10-05T16:47:37.150Z,6335.4541
2022-10-05T17:02:39.497Z,9189.12207
2022-10-05T17:17:41.805Z,7030.4541
2022-10-05T17:32:44.129Z,4952.23926
2022-10-05T17:47:47.583Z,5011.36768
2022-10-05T18:02:50.144Z,5103.45264
2022-10-05T18:17:52.500Z,5502.81104
2022-10-05T18:32:54.796Z,5400.06348
2022-10-05T18:47:57.092Z,4800.05664
2022-10-05T19:02:59.502Z,4858.21533
2022-10-05T19:18:03.236Z,3820.07715
2022-10-05T19:33:05.516Z,3946.08838
2022-10-05T19:48:07.787Z,5125.74658
2022-10-05T20:03:10.257Z,5162.58105
2022-10-05T20:18:12.630Z,4917.34375
2022-10-05T20:33:15.080Z,4083.73145
2022-10-05T20:48:17.360Z,3821.04663
2022-10-05T21:03:19.810Z,3243.33374
2022-10-05T21:18:22.146Z,3136.70898
2022-10-05T21:33:24.805Z,199.67924
2022-10-05T21:48:27.753Z,3037.83862
2022-10-05T22:03:30.933Z,2720.87207
2022-10-05T22:18:33.292Z,2854.6377
2022-10-05T22:33:35.554Z,2130.55811
2022-10-05T22:48:37.878Z,1986.13
2022-10-05T23:03:40.233Z,1640.08386
2022-10-05T23:18:42.540Z,1476.26941
2022-10-05T23:33:44.852Z,1374.49109
2022-10-05T23:48:47.135Z,1037.16895
